Time;durP1;ratioP1;P1;durP2;ratioP2;P2;SDS_P1;SDS_P2;PMS_P1;PMS_P2;Temp;Humidity;BMP_temperature;BMP_pressure;BME280_temperature;BME280_humidity;BME280_pressure;Samples;Min_cycle;Max_cycle;Signal;HPM_P1;HPM_P2
2022/04/01 00:01:08;;;;;;;3.63;1.35;;;;;;;0.84;80.74;100830.50;5022642;28;20026;-72
2022/04/01 00:03:34;;;;;;;2.25;0.93;;;;;;;0.91;80.38;100843.03;5017470;28;20088;-72
2022/04/01 00:06:00;;;;;;;1.95;1.00;;;;;;;0.87;80.53;100841.56;5007410;28;20025;-72
2022/04/01 00:08:25;;;;;;;1.85;0.90;;;;;;;0.89;80.42;100847.50;5023651;28;20061;-72
2022/04/01 00:10:51;;;;;;;2.25;0.90;;;;;;;0.86;80.84;100850.28;5021019;28;20102;-72
2022/04/01 00:13:16;;;;;;;1.42;0.80;;;;;;;0.76;80.41;100831.78;5016125;28;20034;-72
2022/04/01 00:15:41;;;;;;;2.22;0.82;;;;;;;0.87;80.57;100853.72;5019315;28;20021;-71
2022/04/01 00:18:07;;;;;;;2.92;0.85;;;;;;;0.81;81.47;100847.94;5027273;28;20080;-71
2022/04/01 00:20:32;;;;;;;3.60;0.93;;;;;;;0.92;81.42;100856.91;5018726;28;20037;-71
2022/04/01 00:22:58;;;;;;;0.82;0.57;;;;;;;0.89;81.17;100851.84;5025818;28;20036;-71
2022/04/01 00:25:24;;;;;;;5.65;1.00;;;;;;;0.89;81.35;100859.66;5017296;28;20022;-71
2022/04/01 00:27:50;;;;;;;1.50;0.65;;;;;;;0.75;81.46;100834.47;5024247;28;20543;-71
2022/04/01 00:30:16;;;;;;;2.78;0.88;;;;;;;0.80;81.62;100841.06;5019954;28;20056;-71
2022/04/01 00:32:41;;;;;;;3.90;0.90;;;;;;;0.89;81.42;100855.28;5021616;28;20049;-72
2022/04/01 00:35:07;;;;;;;1.15;0.70;;;;;;;0.80;81.17;100846.25;5021764;28;20038;-72
2022/04/01 00:37:33;;;;;;;1.80;0.90;;;;;;;0.89;81.18;100854.47;5002253;28;20030;-72
2022/04/01 00:39:59;;;;;;;1.85;0.70;;;;;;;0.90;82.14;100862.19;5019457;28;20088;-72
2022/04/01 00:42:26;;;;;;;1.63;1.00;;;;;;;0.89;82.02;100859.66;5023242;28;20096;-72
2022/04/01 00:44:52;;;;;;;1.35;0.60;;;;;;;0.85;81.77;100853.81;5019650;28;20030;-71
2022/04/01 00:47:17;;;;;;;3.78;0.95;;;;;;;0.81;81.93;100847.94;5020909;28;20041;-71
2022/04/01 00:49:44;;;;;;;2.97;1.00;;;;;;;0.89;81.91;100868.28;5018480;28;20030;-72
2022/04/01 00:52:12;;;;;;;1.02;0.70;;;;;;;0.82;81.99;100852.19;5018583;28;20041;-71
2022/04/01 00:54:38;;;;;;;3.22;1.10;;;;;;;0.87;81.61;100857.16;5022682;28;20041;-71
2022/04/01 00:57:06;;;;;;;3.13;0.90;;;;;;;0.69;81.54;100840.00;5019041;28;20088;-71
2022/04/01 00:59:32;;;;;;;5.10;1.65;;;;;;;0.87;81.34;100864.97;5020717;28;20030;-71
2022/04/01 01:01:58;;;;;;;5.03;1.20;;;;;;;0.87;81.39;100864.09;5018011;28;20092;-71
2022/04/01 01:04:24;;;;;;;1.35;0.60;;;;;;;0.84;81.76;100872.91;5021916;28;20018;-71
2022/04/01 01:06:54;;;;;;;1.27;0.70;;;;;;;0.86;81.21;100859.84;5024867;28;20103;-71
2022/04/01 01:09:21;;;;;;;1.08;0.70;;;;;;;0.72;81.62;100827.69;5013980;28;20024;-71
2022/04/01 01:11:51;;;;;;;3.35;0.90;;;;;;;0.89;81.45;100860.47;5015892;28;20401;-71
2022/04/01 01:14:26;;;;;;;0.90;0.57;;;;;;;0.89;81.67;100857.06;5022695;28;20512;-71
2022/04/01 01:16:52;;;;;;;1.85;1.00;;;;;;;0.90;81.69;100862.19;5024676;28;20025;-73
2022/04/01 01:19:20;;;;;;;1.75;1.05;;;;;;;0.86;81.17;100849.44;5019737;28;20184;-72
2022/04/01 01:21:50;;;;;;;1.80;0.85;;;;;;;0.90;82.09;100867.38;5023788;28;20135;-71
2022/04/01 01:24:16;;;;;;;2.90;1.33;;;;;;;0.88;82.84;100858.00;5020604;28;20034;-71
2022/04/01 01:26:52;;;;;;;3.65;1.15;;;;;;;0.87;82.37;100862.38;5020217;28;20032;-71
2022/04/01 01:29:26;;;;;;;2.15;0.77;;;;;;;0.92;82.28;100865.53;5013358;28;20026;-71
2022/04/01 01:31:54;;;;;;;1.48;0.70;;;;;;;0.82;81.92;100849.59;5016075;28;20025;-72
2022/04/01 01:34:21;;;;;;;3.28;1.13;;;;;;;0.94;82.61;100865.44;5014401;28;20028;-72
2022/04/01 01:36:46;;;;;;;1.77;0.70;;;;;;;0.91;82.02;100863.00;5021200;28;20033;-72
2022/04/01 01:39:12;;;;;;;3.72;1.05;;;;;;;0.91;82.20;100847.41;5020205;28;20060;-71
2022/04/01 01:41:37;;;;;;;1.70;1.05;;;;;;;0.90;81.84;100848.34;5017151;28;20406;-73
2022/04/01 01:44:04;;;;;;;1.80;1.17;;;;;;;0.89;82.03;100854.47;5026780;28;20508;-72
2022/04/01 01:46:30;;;;;;;5.70;1.67;;;;;;;0.88;82.61;100858.81;5022310;28;20045;-72
2022/04/01 01:48:55;;;;;;;3.97;0.98;;;;;;;0.89;82.03;100851.84;5025147;28;20026;-71
2022/04/01 01:56:48;;;;;;;1.95;0.88;;;;;;;0.84;81.89;100856.50;5017851;28;20116;-71
2022/04/01 01:59:14;;;;;;;6.82;1.15;;;;;;;0.87;81.65;100869.28;5002626;28;20026;-71
2022/04/01 02:01:41;;;;;;;2.03;0.88;;;;;;;0.77;81.77;100846.44;5022223;28;20132;-71
2022/04/01 02:04:07;;;;;;;1.83;0.80;;;;;;;0.85;81.86;100859.00;5022963;28;20490;-71
2022/04/01 02:06:33;;;;;;;0.95;0.52;;;;;;;0.76;81.70;100847.38;5017603;28;20022;-71
2022/04/01 02:08:59;;;;;;;10.57;1.33;;;;;;;0.71;81.68;100840.75;5014650;28;20037;-71
2022/04/01 02:11:25;;;;;;;3.42;0.85;;;;;;;0.87;82.10;100864.97;5017477;28;20034;-71
2022/04/01 02:13:51;;;;;;;2.53;1.20;;;;;;;0.86;82.72;100868.47;5018249;28;20037;-71
2022/04/01 02:16:18;;;;;;;2.67;0.90;;;;;;;0.85;83.08;100868.53;5013656;28;20071;-71
2022/04/01 02:18:44;;;;;;;1.55;0.55;;;;;;;0.82;83.51;100870.38;5019841;28;20036;-71
2022/04/01 02:21:15;;;;;;;2.25;1.15;;;;;;;0.70;82.83;100852.91;5023879;28;20045;-71
2022/04/01 02:23:43;;;;;;;1.75;0.85;;;;;;;0.79;82.47;100860.19;5013938;28;20593;-71
2022/04/01 02:26:09;;;;;;;0.95;0.52;;;;;;;0.84;82.85;100859.09;5018259;28;20533;-71
2022/04/01 02:28:35;;;;;;;2.75;0.90;;;;;;;0.69;83.03;100853.81;5016117;28;20482;-71
2022/04/01 02:31:01;;;;;;;10.90;1.20;;;;;;;0.85;82.52;100871.13;5003616;28;20353;-71
2022/04/01 02:33:27;;;;;;;1.35;0.88;;;;;;;0.83;83.03;100871.25;5012979;28;20038;-71
2022/04/01 02:35:57;;;;;;;4.80;0.90;;;;;;;0.82;82.88;100879.94;5004568;28;20026;-71
2022/04/01 02:38:27;;;;;;;1.80;0.77;;;;;;;0.68;82.79;100856.53;5017956;28;20477;-71
2022/04/01 02:40:54;;;;;;;6.47;0.93;;;;;;;0.87;82.91;100882.28;5014532;28;20265;-71
2022/04/01 02:43:20;;;;;;;3.50;1.58;;;;;;;0.85;82.41;100884.13;5018193;28;20116;-71
2022/04/01 02:45:48;;;;;;;1.52;1.00;;;;;;;0.74;82.63;100871.75;5013918;28;20104;-71
2022/04/01 02:48:18;;;;;;;1.80;0.68;;;;;;;0.74;82.29;100866.56;5020683;28;20143;-71
2022/04/01 02:50:45;;;;;;;2.83;0.70;;;;;;;0.84;82.11;100882.47;5017079;28;20060;-71
2022/04/01 02:53:11;;;;;;;1.27;0.70;;;;;;;0.82;82.32;100885.97;5021068;28;20500;-71
2022/04/01 02:55:37;;;;;;;2.05;0.95;;;;;;;0.81;81.81;100884.31;5020731;28;20202;-72
2022/04/01 02:58:06;;;;;;;1.27;0.50;;;;;;;0.76;81.54;100885.50;5014586;28;20025;-72
2022/04/01 03:00:37;;;;;;;4.07;1.00;;;;;;;0.76;81.77;100886.34;5022857;28;20026;-73
2022/04/01 03:03:06;;;;;;;;;;;;;;;0.80;81.97;100903.41;5025005;28;20029;-71
2022/04/01 03:05:33;;;;;;;2.70;0.80;;;;;;;0.84;81.29;100898.06;5025536;28;19917;-72
2022/04/01 03:07:58;;;;;;;1.67;0.65;;;;;;;0.84;81.71;100892.88;5016022;28;20036;-72
2022/04/01 03:10:24;;;;;;;2.28;1.10;;;;;;;0.80;81.67;100898.22;5023883;28;20065;-72
2022/04/01 03:12:50;;;;;;;4.63;1.13;;;;;;;0.74;81.62;100893.38;5016902;28;20106;-72
2022/04/01 03:15:17;;;;;;;1.80;0.52;;;;;;;0.80;81.31;100903.41;5024850;28;20039;-71
2022/04/01 03:17:42;;;;;;;1.73;0.70;;;;;;;0.70;81.15;100886.69;5011788;28;20389;-72
2022/04/01 03:20:13;;;;;;;3.70;0.82;;;;;;;0.82;81.43;100908.53;5011086;28;20046;-72
2022/04/01 03:22:45;;;;;;;1.48;1.00;;;;;;;0.82;81.46;100911.13;5020572;28;20522;-72
2022/04/01 03:25:14;;;;;;;4.13;1.15;;;;;;;0.81;81.35;100910.31;5015676;28;20422;-72
2022/04/01 03:27:40;;;;;;;6.00;1.27;;;;;;;0.77;81.21;100907.97;5016226;28;20060;-71
2022/04/01 03:30:09;;;;;;;1.50;0.70;;;;;;;0.81;82.01;100920.69;5027113;28;20029;-71
2022/04/01 03:32:39;;;;;;;1.13;0.70;;;;;;;0.73;81.13;100901.25;5010835;28;20025;-72
2022/04/01 03:35:08;;;;;;;9.23;0.85;;;;;;;0.71;81.59;100892.72;5026234;28;20059;-72
2022/04/01 03:37:33;;;;;;;2.40;0.85;;;;;;;0.85;81.44;100918.78;5009854;28;20033;-72
2022/04/01 03:40:00;;;;;;;1.83;0.80;;;;;;;0.87;81.14;100927.31;5013193;28;20080;-72
2022/04/01 03:42:30;;;;;;;6.57;0.90;;;;;;;0.75;80.98;100905.44;5023464;28;20109;-71
2022/04/01 03:44:56;;;;;;;1.77;0.75;;;;;;;0.89;80.77;100916.81;5018633;28;20018;-73
2022/04/01 03:47:26;;;;;;;2.38;0.88;;;;;;;0.90;80.94;100923.72;5016397;28;20034;-72
2022/04/01 03:49:58;;;;;;;3.13;0.80;;;;;;;0.84;81.31;100918.84;5015325;28;20025;-72
2022/04/01 03:52:24;;;;;;;1.45;0.90;;;;;;;0.89;80.81;100928.03;5015982;28;20072;-72
2022/04/01 03:54:54;;;;;;;1.92;0.82;;;;;;;0.89;80.63;100927.22;5025365;28;20034;-72
2022/04/01 03:57:29;;;;;;;2.50;1.00;;;;;;;0.88;80.56;100933.34;5024789;28;20490;-72
2022/04/01 03:59:57;;;;;;;2.42;0.85;;;;;;;0.90;80.80;100931.50;5023099;28;20017;-71
2022/04/01 04:02:24;;;;;;;1.30;0.65;;;;;;;0.78;79.83;100913.09;5024934;28;20026;-72
2022/04/01 04:04:51;;;;;;;1.70;0.68;;;;;;;0.88;80.19;100925.56;5017077;28;20052;-71
2022/04/01 04:07:17;;;;;;;3.20;1.42;;;;;;;0.88;79.92;100934.19;5009669;28;20046;-71
2022/04/01 04:09:44;;;;;;;1.17;0.50;;;;;;;0.78;79.75;100920.88;5009587;28;20028;-72
2022/04/01 04:12:15;;;;;;;3.42;0.68;;;;;;;0.89;80.48;100942.81;5017224;28;20537;-72
2022/04/01 04:14:42;;;;;;;2.63;0.80;;;;;;;0.78;80.48;100941.66;5020941;28;20105;-72
2022/04/01 04:17:14;;;;;;;2.17;0.77;;;;;;;0.81;80.58;100931.09;5015833;28;20540;-72
2022/04/01 04:19:46;;;;;;;1.02;0.55;;;;;;;0.92;80.96;100947.84;5015778;28;20167;-72
2022/04/01 04:22:16;;;;;;;2.05;0.85;;;;;;;0.86;80.64;100943.81;5013150;28;20474;-72
2022/04/01 04:24:54;;;;;;;1.45;0.73;;;;;;;0.88;80.98;100949.78;5010367;28;20076;-72
2022/04/01 04:27:27;;;;;;;1.50;0.60;;;;;;;0.90;81.13;100944.50;5017302;28;20034;-72
2022/04/01 04:30:08;;;;;;;2.25;0.88;;;;;;;0.93;81.16;100949.50;5028439;28;20100;-72
2022/04/01 04:32:55;;;;;;;2.28;0.68;;;;;;;0.89;81.27;100955.78;5017673;28;20393;-74
2022/04/01 04:35:21;;;;;;;1.92;0.85;;;;;;;0.78;80.84;100940.81;5024912;28;20144;-72
2022/04/01 04:37:46;;;;;;;2.85;1.08;;;;;;;0.94;81.15;100966.78;5022207;28;20096;-72
2022/04/01 04:40:15;;;;;;;2.72;0.90;;;;;;;0.84;81.33;100956.06;5023463;28;20070;-72
2022/04/01 04:42:45;;;;;;;2.78;0.80;;;;;;;0.93;81.20;100971.13;5020869;28;20130;-72
2022/04/01 04:45:22;;;;;;;1.83;0.80;;;;;;;0.94;81.15;100972.00;5020804;28;20103;-72
2022/04/01 04:47:49;;;;;;;1.23;0.70;;;;;;;0.96;81.68;100981.38;5016528;28;20017;-72
2022/04/01 04:50:16;;;;;;;3.28;1.05;;;;;;;0.97;81.18;100982.22;5022951;28;20045;-72
2022/04/01 04:52:47;;;;;;;10.95;0.80;;;;;;;0.93;81.19;100981.53;5027039;28;20025;-72
2022/04/01 04:55:22;;;;;;;2.67;1.00;;;;;;;0.94;81.55;100985.00;5023036;28;20032;-72
2022/04/01 04:57:50;;;;;;;1.08;0.60;;;;;;;0.93;81.83;100980.69;5013304;28;20413;-72
2022/04/01 05:00:19;;;;;;;2.67;1.15;;;;;;;0.90;81.76;100988.66;5021013;28;20050;-72
2022/04/01 05:03:06;;;;;;;1.25;1.10;;;;;;;0.94;80.97;100992.78;5020160;28;20025;-72
2022/04/01 05:05:47;;;;;;;1.30;0.80;;;;;;;0.89;81.44;100984.38;5019064;28;20029;-72
2022/04/01 05:08:48;;;;;;;4.80;0.80;;;;;;;0.91;80.57;100998.13;5019705;28;20042;-72
2022/04/01 05:11:22;;;;;;;1.73;0.73;;;;;;;0.87;80.90;100991.41;5018406;28;20033;-73
2022/04/01 05:14:00;;;;;;;2.97;0.65;;;;;;;0.93;80.24;101001.47;5015852;28;20156;-73
2022/04/01 05:16:42;;;;;;;1.63;0.57;;;;;;;0.96;80.61;101012.56;5011567;28;20504;-73
2022/04/01 05:19:17;;;;;;;4.45;1.25;;;;;;;0.96;81.14;101006.53;5012835;28;20429;-72
2022/04/01 05:21:51;;;;;;;4.70;1.33;;;;;;;0.96;79.71;101011.72;5022692;28;20145;-73
2022/04/01 05:24:32;;;;;;;0.95;0.68;;;;;;;0.96;80.22;101011.72;5014007;28;20397;-73
2022/04/01 05:27:00;;;;;;;1.73;0.80;;;;;;;0.98;80.35;101030.66;5014571;28;20057;-73
2022/04/01 05:29:31;;;;;;;1.42;0.77;;;;;;;0.98;80.16;101031.50;5013628;28;20389;-73
2022/04/01 05:32:09;;;;;;;2.78;0.85;;;;;;;0.90;80.31;101012.06;5020399;28;20528;-71
2022/04/01 05:34:46;;;;;;;4.07;0.73;;;;;;;0.91;80.46;101011.13;5023710;28;20041;-73
2022/04/01 05:37:13;;;;;;;4.10;0.90;;;;;;;1.03;80.53;101037.28;5012729;28;20048;-73
2022/04/01 05:39:40;;;;;;;3.03;1.40;;;;;;;1.02;81.74;101030.44;5013623;28;20136;-74
2022/04/01 05:42:09;;;;;;;5.55;1.08;;;;;;;1.05;80.79;101045.00;5019575;28;20405;-74
2022/04/01 05:44:36;;;;;;;3.63;0.70;;;;;;;1.07;80.46;101045.75;5017074;28;20037;-74
2022/04/01 05:47:03;;;;;;;1.98;0.70;;;;;;;0.92;81.25;101021.44;5014763;28;20095;-74
2022/04/01 05:49:29;;;;;;;3.25;0.93;;;;;;;1.03;80.99;101041.66;5013476;28;20513;-73
2022/04/01 05:51:55;;;;;;;1.20;0.70;;;;;;;1.07;80.42;101053.56;5012771;28;20037;-73
2022/04/01 05:54:23;;;;;;;3.45;1.05;;;;;;;1.06;80.82;101048.44;5016248;28;20056;-75
2022/04/01 05:56:49;;;;;;;3.05;0.80;;;;;;;1.11;80.74;101055.06;5008630;28;20117;-74
2022/04/01 05:59:16;;;;;;;2.20;1.02;;;;;;;1.10;81.09;101066.38;5009944;28;20033;-75
2022/04/01 06:01:48;;;;;;;1.98;1.05;;;;;;;1.09;80.72;101053.47;5009118;28;20041;-75
2022/04/01 06:04:38;;;;;;;1.20;0.60;;;;;;;1.13;80.25;101071.44;5013280;28;20033;-74
2022/04/01 06:07:48;;;;;;;1.52;0.70;;;;;;;1.14;79.92;101065.28;5020312;28;20048;-73
2022/04/01 06:10:29;;;;;;;1.67;0.90;;;;;;;1.16;80.45;101084.25;5021260;28;20042;-74
2022/04/01 06:13:26;;;;;;;0.80;0.60;;;;;;;1.25;80.16;101089.88;5021362;28;20045;-74
2022/04/01 06:16:00;;;;;;;6.88;1.08;;;;;;;1.30;79.43;101083.47;5004961;28;20076;-74
2022/04/01 06:18:33;;;;;;;1.73;0.80;;;;;;;1.28;79.60;101092.28;5007920;28;20394;-74
2022/04/01 06:21:03;;;;;;;3.15;1.27;;;;;;;1.27;79.72;101094.06;5020672;28;20046;-74
2022/04/01 06:24:00;;;;;;;4.63;1.10;;;;;;;1.33;79.35;101108.47;5016243;28;20137;-74
2022/04/01 06:26:28;;;;;;;0.90;0.55;;;;;;;1.21;79.65;101094.38;5006955;28;20413;-74
2022/04/01 06:29:34;;;;;;;1.25;0.73;;;;;;;1.34;78.63;101103.19;4999200;28;20029;-75
2022/04/01 06:32:13;;;;;;;1.25;0.75;;;;;;;1.31;79.21;101099.94;4992308;28;20042;-73
2022/04/01 06:35:14;;;;;;;1.15;0.90;;;;;;;1.36;78.95;101103.94;4990514;28;20026;-75
2022/04/01 06:37:57;;;;;;;1.45;1.10;;;;;;;1.36;79.56;101093.56;4929876;29;20046;-75
2022/04/01 06:40:28;;;;;;;1.92;1.00;;;;;;;1.42;79.15;101106.22;4946178;29;20044;-74
2022/04/01 06:42:54;;;;;;;1.25;0.70;;;;;;;1.38;79.16;101101.28;4930560;29;20038;-74
2022/04/01 06:45:20;;;;;;;2.60;0.90;;;;;;;1.34;78.97;101094.56;4930301;29;20046;-74
2022/04/01 06:47:46;;;;;;;1.65;0.60;;;;;;;1.49;79.17;101124.09;4931925;28;20039;-75
2022/04/01 06:50:12;;;;;;;4.53;1.35;;;;;;;1.54;79.04;101133.31;4947066;28;20027;-73
2022/04/01 06:52:39;;;;;;;2.00;0.77;;;;;;;1.54;78.83;101133.31;4947504;29;20093;-73
2022/04/01 06:55:06;;;;;;;1.77;0.82;;;;;;;1.60;79.00;101139.94;4931303;28;20038;-73
2022/04/01 06:57:32;;;;;;;5.15;1.95;;;;;;;1.60;79.05;101132.13;4946289;29;20039;-74
2022/04/01 06:59:57;;;;;;;2.15;0.75;;;;;;;1.52;76.23;101132.53;4930521;29;20102;-72
2022/04/01 07:02:23;;;;;;;1.83;0.60;;;;;;;1.61;76.95;101136.41;4946121;29;20069;-73
2022/04/01 07:04:48;;;;;;;2.08;0.98;;;;;;;1.66;77.29;101142.22;4930202;29;20436;-73
2022/04/01 07:07:14;;;;;;;2.45;0.90;;;;;;;1.69;77.07;101142.03;4932983;28;20621;-73
2022/04/01 07:09:39;;;;;;;2.60;0.80;;;;;;;1.73;77.29;101147.91;4954030;28;20033;-73
2022/04/01 07:12:05;;;;;;;2.13;0.57;;;;;;;1.72;77.64;101148.81;4962343;28;20026;-74
2022/04/01 07:14:31;;;;;;;5.35;0.82;;;;;;;1.72;77.92;101144.47;4992725;28;20045;-72
2022/04/01 07:16:58;;;;;;;5.55;0.85;;;;;;;1.63;75.55;101131.94;5019920;28;20094;-72
2022/04/01 07:19:23;;;;;;;3.10;0.90;;;;;;;1.63;73.98;101161.44;4992643;28;20482;-72
2022/04/01 07:21:49;;;;;;;1.92;0.77;;;;;;;1.71;74.64;101150.59;5017928;28;20041;-72
2022/04/01 07:24:14;;;;;;;2.08;0.73;;;;;;;1.66;74.14;101149.19;5016695;28;20025;-72
2022/04/01 07:26:40;;;;;;;2.58;0.80;;;;;;;1.73;74.19;101179.97;5017670;28;20564;-73
2022/04/01 07:29:06;;;;;;;8.23;1.15;;;;;;;1.61;74.07;101170.22;5011862;28;20424;-72
2022/04/01 07:34:24;;;;;;;1.90;1.08;;;;;;;1.56;75.31;101186.09;5018580;28;20238;-71
2022/04/01 07:36:50;;;;;;;1.80;0.85;;;;;;;1.54;76.63;101169.72;5014221;28;20696;-71
2022/04/01 07:39:15;;;;;;;2.20;0.90;;;;;;;1.61;76.36;101181.50;5011237;28;20041;-71
2022/04/01 07:41:41;;;;;;;1.80;0.73;;;;;;;1.45;76.45;101178.03;5014616;28;20095;-72
2022/04/01 07:44:07;;;;;;;2.92;0.88;;;;;;;1.59;77.33;101180.72;5014210;28;20408;-72
2022/04/01 07:46:32;;;;;;;2.00;0.90;;;;;;;1.63;76.74;101200.47;5015323;28;20415;-72
2022/04/01 07:48:58;;;;;;;1.17;0.75;;;;;;;1.69;75.79;101201.88;5010100;28;20030;-72
2022/04/01 07:51:24;;;;;;;2.13;0.85;;;;;;;1.39;75.67;101189.63;5011239;28;20061;-72
2022/04/01 07:53:49;;;;;;;1.00;0.60;;;;;;;1.45;76.14;101198.84;4996507;28;20553;-72
2022/04/01 07:56:14;;;;;;;16.35;1.20;;;;;;;1.35;76.27;101211.50;4999414;28;20026;-72
2022/04/01 07:58:40;;;;;;;6.45;1.70;;;;;;;1.39;76.61;101223.44;4986728;28;20053;-72
2022/04/01 08:01:05;;;;;;;1.20;0.88;;;;;;;1.36;78.37;101220.16;5016289;28;20029;-72
2022/04/01 08:03:31;;;;;;;3.00;1.25;;;;;;;1.40;77.79;101224.25;5020531;28;20026;-72
2022/04/01 08:05:58;;;;;;;1.98;0.93;;;;;;;1.49;78.11;101235.94;5018357;28;20026;-72
2022/04/01 08:08:23;;;;;;;2.63;0.77;;;;;;;1.56;78.52;101221.69;5018746;28;20090;-72
2022/04/01 08:10:51;;;;;;;2.33;0.65;;;;;;;1.58;78.57;101228.47;5024124;28;20021;-72
2022/04/01 08:13:17;;;;;;;2.15;0.85;;;;;;;1.51;75.50;101215.91;5020883;28;20095;-72
2022/04/01 08:15:43;;;;;;;1.02;0.60;;;;;;;1.68;74.48;101218.41;5019753;28;20025;-72
2022/04/01 08:18:08;;;;;;;1.25;0.52;;;;;;;1.70;73.80;101207.91;5016458;28;20400;-72
2022/04/01 08:20:34;;;;;;;1.95;0.88;;;;;;;1.82;73.16;101226.28;5020495;28;20041;-72
2022/04/01 08:23:00;;;;;;;1.35;0.80;;;;;;;1.79;71.94;101230.84;5019141;28;20053;-73
2022/04/01 08:25:25;;;;;;;3.28;1.00;;;;;;;1.75;72.56;101224.97;5018430;28;20040;-74
2022/04/01 08:27:50;;;;;;;4.20;1.08;;;;;;;1.74;72.68;101238.91;5019619;28;20025;-73
2022/04/01 08:30:16;;;;;;;5.90;1.13;;;;;;;1.83;73.95;101235.78;5019034;28;20276;-73
2022/04/01 08:32:42;;;;;;;1.98;0.75;;;;;;;1.66;73.70;101225.47;5023556;28;20026;-73
2022/04/01 08:35:08;;;;;;;1.00;0.65;;;;;;;1.74;74.55;101248.47;5020287;28;20109;-73
2022/04/01 08:37:34;;;;;;;2.00;0.82;;;;;;;2.04;74.26;101253.75;5021923;28;20031;-73
2022/04/01 08:40:00;;;;;;;2.85;0.85;;;;;;;2.06;74.68;101252.72;5017926;28;20026;-73
2022/04/01 08:42:27;;;;;;;1.52;0.95;;;;;;;2.40;74.31;101248.25;5020211;28;20026;-73
2022/04/01 08:44:53;;;;;;;0.98;0.88;;;;;;;2.12;73.28;101248.97;5019235;28;20075;-73
2022/04/01 08:47:19;;;;;;;2.13;1.25;;;;;;;2.42;72.72;101253.38;5017476;28;20022;-73
2022/04/01 08:49:45;;;;;;;4.85;0.95;;;;;;;2.12;71.62;101253.34;5019446;28;20454;-72
2022/04/01 08:52:10;;;;;;;4.05;1.10;;;;;;;2.19;71.81;101273.72;5018006;28;20116;-73
2022/04/01 08:54:35;;;;;;;5.07;1.20;;;;;;;2.32;71.68;101266.06;5019837;28;20494;-73
2022/04/01 08:57:01;;;;;;;1.92;0.90;;;;;;;2.30;71.82;101277.50;5017759;28;20030;-73
2022/04/01 08:59:28;;;;;;;2.50;1.38;;;;;;;1.90;74.92;101285.75;5018822;28;20493;-72
2022/04/01 09:02:02;;;;;;;1.42;0.80;;;;;;;1.82;76.32;101293.13;5020649;28;20022;-72
2022/04/01 09:04:28;;;;;;;2.28;1.05;;;;;;;1.82;77.66;101286.16;5017803;28;20059;-73
2022/04/01 09:06:53;;;;;;;2.20;0.80;;;;;;;2.20;75.97;101277.16;5015955;28;20026;-73
2022/04/01 09:09:26;;;;;;;2.25;0.60;;;;;;;2.32;74.30;101281.69;5020972;28;20034;-73
2022/04/01 09:12:07;;;;;;;2.53;0.75;;;;;;;2.41;72.90;101270.75;5020341;28;20018;-73
2022/04/01 09:14:34;;;;;;;1.33;0.60;;;;;;;2.50;72.71;101311.06;5004546;28;20509;-74
2022/04/01 09:17:01;;;;;;;3.50;0.75;;;;;;;2.19;72.70;101296.34;5024824;28;20056;-73
2022/04/01 09:19:31;;;;;;;2.53;0.90;;;;;;;2.54;71.66;101296.13;5020797;28;20613;-73
2022/04/01 09:21:57;;;;;;;1.33;0.87;;;;;;;2.60;70.69;101298.38;5019283;28;20042;-73
2022/04/01 09:24:22;;;;;;;1.33;0.70;;;;;;;2.70;72.06;101307.38;5021531;28;20469;-73
2022/04/01 09:26:53;;;;;;;2.47;1.10;;;;;;;2.78;71.31;101292.09;5019436;28;20440;-73
2022/04/01 09:29:19;;;;;;;3.67;1.08;;;;;;;2.86;72.25;101289.91;5017892;28;20043;-74
2022/04/01 09:31:52;;;;;;;4.82;1.17;;;;;;;3.02;71.64;101296.81;5018010;28;20053;-73
2022/04/01 09:34:17;;;;;;;1.73;0.80;;;;;;;3.14;70.39;101311.75;5024660;28;20030;-72
2022/04/01 09:36:43;;;;;;;2.63;0.82;;;;;;;3.27;69.70;101299.66;5015962;28;20041;-73
2022/04/01 09:39:12;;;;;;;1.50;0.80;;;;;;;3.36;68.92;101307.88;5019444;28;20037;-73
2022/04/01 09:41:48;;;;;;;4.25;1.42;;;;;;;3.44;67.73;101323.88;5025427;28;20515;-73
2022/04/01 09:44:17;;;;;;;3.17;0.73;;;;;;;3.48;67.34;101294.06;5022636;28;20084;-74
2022/04/01 09:46:50;;;;;;;2.22;0.90;;;;;;;3.80;66.00;101314.75;5022518;28;20432;-74
2022/04/01 09:49:39;;;;;;;3.72;0.70;;;;;;;4.07;63.78;101318.28;5021628;28;20017;-74
2022/04/01 09:52:11;;;;;;;1.92;0.90;;;;;;;4.22;62.92;101306.00;5019472;28;20029;-74
2022/04/01 09:54:56;;;;;;;1.65;0.50;;;;;;;4.37;63.10;101309.41;5024510;28;20036;-76
2022/04/01 09:57:23;;;;;;;2.05;0.80;;;;;;;4.52;62.04;101316.25;5019285;28;20026;-74
2022/04/01 09:59:51;;;;;;;2.38;1.00;;;;;;;4.44;59.69;101308.09;5027191;28;20040;-73
2022/04/01 10:02:17;;;;;;;4.95;0.77;;;;;;;4.46;58.21;101313.19;5019178;28;20045;-74
2022/04/01 10:04:43;;;;;;;1.13;0.60;;;;;;;4.53;56.97;101289.19;5020074;28;20026;-73
2022/04/01 10:07:09;;;;;;;1.73;1.00;;;;;;;4.86;56.60;101316.69;5022535;28;20462;-73
2022/04/01 10:09:37;;;;;;;1.17;0.65;;;;;;;4.86;58.82;101306.22;5017026;28;20029;-73
2022/04/01 10:12:08;;;;;;;1.48;0.60;;;;;;;4.78;57.24;101321.56;5016189;28;20048;-73
2022/04/01 10:14:35;;;;;;;1.30;0.65;;;;;;;4.62;56.13;101300.00;5021148;28;20140;-73
2022/04/01 10:17:03;;;;;;;1.60;0.68;;;;;;;4.45;56.19;101294.06;5016733;28;20426;-73
2022/04/01 10:19:34;;;;;;;1.13;0.55;;;;;;;4.44;56.09;101317.69;5020709;28;20486;-73
2022/04/01 10:21:59;;;;;;;1.20;0.70;;;;;;;4.43;57.38;101297.72;5016521;28;20050;-74
2022/04/01 10:24:40;;;;;;;1.23;0.60;;;;;;;4.58;56.12;101316.81;5018962;28;20040;-72
2022/04/01 10:27:31;;;;;;;1.63;0.63;;;;;;;4.64;56.42;101322.47;5020067;28;20033;-73
2022/04/01 10:29:57;;;;;;;1.38;0.68;;;;;;;4.80;57.65;101309.22;5014802;28;20092;-72
2022/04/01 10:32:27;;;;;;;1.65;0.52;;;;;;;4.82;55.78;101319.59;5017310;28;20032;-73
2022/04/01 10:34:55;;;;;;;1.23;0.70;;;;;;;4.74;55.18;101286.09;5015193;28;20033;-72
2022/04/01 10:37:25;;;;;;;1.35;0.65;;;;;;;5.06;56.26;101332.84;5017794;28;20032;-72
2022/04/01 10:39:53;;;;;;;0.90;0.50;;;;;;;4.67;53.68;101311.81;5016768;28;20422;-72
2022/04/01 10:42:18;;;;;;;1.85;0.60;;;;;;;4.53;52.53;101315.34;5016813;28;20094;-72
2022/04/01 10:44:56;;;;;;;1.20;0.50;;;;;;;4.88;54.26;101324.44;4996966;28;20168;-72
2022/04/01 10:51:36;;;;;;;3.95;0.63;;;;;;;4.91;55.75;101330.28;5013991;28;20095;-74
2022/04/01 10:53:31;;;;;;;0.60;0.30;;;;;;;4.93;52.59;101320.56;5017999;28;20044;-73
2022/04/01 10:56:36;;;;;;;2.20;0.60;;;;;;;5.04;52.28;101329.47;5024340;28;20180;-72
2022/04/01 10:59:04;;;;;;;1.27;0.50;;;;;;;5.21;54.18;101331.81;5010400;28;20366;-73
2022/04/01 11:01:30;;;;;;;2.33;0.60;;;;;;;5.19;52.11;101333.69;5004913;28;20562;-73
2022/04/01 11:04:07;;;;;;;1.02;0.45;;;;;;;5.38;53.30;101342.88;5025129;28;20049;-75
2022/04/01 11:07:00;;;;;;;2.40;0.63;;;;;;;5.26;53.30;101337.56;5025314;28;20053;-73
2022/04/01 11:09:35;;;;;;;1.55;0.70;;;;;;;5.60;57.68;101337.88;5022782;28;20473;-73
2022/04/01 11:12:16;;;;;;;2.95;0.90;;;;;;;5.75;55.42;101336.81;5024261;28;20137;-74
2022/04/01 11:14:53;;;;;;;3.92;1.25;;;;;;;5.84;54.36;101345.00;5025981;28;20087;-73
2022/04/01 11:17:29;;;;;;;2.90;0.95;;;;;;;5.95;58.05;101332.84;5026271;28;20081;-73
2022/04/01 11:20:39;;;;;;;2.58;0.95;;;;;;;6.07;57.55;101341.59;4992295;28;20041;-73
2022/04/01 11:23:07;;;;;;;2.70;1.02;;;;;;;6.09;56.92;101337.09;5023278;28;20037;-73
2022/04/01 11:25:32;;;;;;;4.75;1.15;;;;;;;6.42;58.31;101334.78;5024624;28;20029;-73
2022/04/01 11:28:02;;;;;;;4.40;1.00;;;;;;;6.57;59.59;101345.00;5024484;28;20135;-75
2022/04/01 11:30:49;;;;;;;2.65;1.00;;;;;;;6.19;56.98;101345.16;5025017;28;20445;-73
2022/04/01 11:33:15;;;;;;;3.47;0.95;;;;;;;6.36;58.10;101343.94;5005387;28;20084;-73
2022/04/01 11:35:53;;;;;;;2.22;0.90;;;;;;;6.33;58.77;101323.19;5018512;28;20099;-73
2022/04/01 11:38:24;;;;;;;2.33;0.98;;;;;;;6.49;58.07;101323.75;5018318;28;20022;-74
2022/04/01 11:40:56;;;;;;;2.10;0.93;;;;;;;5.97;57.94;101341.44;5019241;28;20412;-74
2022/04/01 11:43:23;;;;;;;3.67;1.05;;;;;;;5.81;59.86;101335.53;5016938;28;20296;-74
2022/04/01 11:46:02;;;;;;;2.17;0.80;;;;;;;5.93;60.49;101349.56;5019859;28;20029;-74
2022/04/01 11:48:29;;;;;;;3.40;0.82;;;;;;;5.93;59.42;101323.38;5016340;28;20566;-74
2022/04/01 11:51:04;;;;;;;2.42;0.95;;;;;;;6.35;59.78;101337.84;5018899;28;20228;-74
2022/04/01 11:53:32;;;;;;;4.18;1.10;;;;;;;6.10;60.48;101309.13;5015137;28;20405;-74
2022/04/01 11:56:00;;;;;;;1.80;1.00;;;;;;;6.26;62.12;101348.16;5019231;28;20014;-74
2022/04/01 11:58:26;;;;;;;2.03;1.02;;;;;;;6.24;63.02;101337.78;5019518;28;20025;-74